Baltimore, MD

9:03 AM EST on January 17, 2017 (GMT -0500)
Baltimore | | Change Station
Active Advisory: Small Craft Advisory

Elev 0 ft 39.31 °N, 76.62 °W | Updated 7 minutes ago

Overcast
Overcast
43.3 °F
Feels Like 43 °F
N
0.6
Wind Variable Wind from North
Gusts 2.5 mph

Today
High -- | Low -- °F
--% Chance of Precip.
Yesterday
High -- | Low -- °F
Precip. -- in
Pressure 30.20 in
Visibility 5.0 miles
Clouds Scattered Clouds 800 ft
Overcast 1100 ft
Windchill 43 °F
Dew Point 43 °F
Humidity 98%
Rainfall 0.05 in
Snow Depth Not available.
7:23 AM 5:10 PM
Waning Gibbous, 72% visible
METAR KBWI 171354Z 14003KT 5SM -RA BR SCT008 OVC011 04/04 A3020 RMK AO2 RAB51 SLP226 P0000 T00440039
Pressure 30.20 in
Visibility 5.0 miles
Clouds Scattered Clouds 800 ft
Overcast 1100 ft
Windchill 43 °F
Dew Point 43 °F
Humidity 98%
Rainfall 0.05 in
Snow Depth Not available.
7:23 AM 5:10 PM
Waning Gibbous, 72% visible
METAR KBWI 171354Z 14003KT 5SM -RA BR SCT008 OVC011 04/04 A3020 RMK AO2 RAB51 SLP226 P0000 T00440039

Get Your Daily Forecast Email!

Thanks for signing up!

Be on the lookout for a verification email in your inbox.

You'll start receiving the daily forecast at 8 AM.

×

10-Day Weather Forecast

Almanac

Astronomy

Jan. 17, 2017 Rise Set
Actual Time
Civil Twilight
Nautical Twilight
Astronomical Twilight
Moon
Length of Visible Light
Length of Day
Tomorrow will be .
, % of the Moon is Illuminated

Today's Extremes

State Highs State Lows

Community

WunderPhotos

Upload Photos

1,962,540 photos uploaded!

WunderBlog® & News

Nearby

Air Quality

  Air Quality AQ Index Pollutant
Not available.

Snow Depth

Station Depth Elevation

Earthquake Activity

City Distance Mag. Time & Date
Minimum magnitude displayed is 2.5.

Coastal Water Temperatures

Place Temperature

Stations

Nearby Weather Stations

Station Location Temp. Windchill Dew Point Humidity Wind Precip. Elev Updated Type
                   

Watches & Warnings

Small Craft Advisory
Issued: 3:05 AM EST Jan. 17, 2017 – National Weather Service

... Small Craft Advisory in effect from 7 am to 6 PM EST
Wednesday...

The National Weather Service in Baltimore MD/Washington has
issued a Small Craft Advisory... which is in effect from 7 am to
6 PM EST Wednesday.

* Winds... 18 to 33 knots within the Small Craft Advisory.

Precautionary/preparedness actions...

A Small Craft Advisory means winds of 18 to 33 knots are imminent
or occurring. Boaters operating smaller vessels should avoid
navigating in these conditions.